sensor_id;sensor_type;location;lat;lon;timestamp;pressure;altitude;pressure_sealevel;temperature;humidity
21102;BME280;10709;49.006;12.100;2024-02-26T00:01:09;49073.19;;;-146.00;97.88
21102;BME280;10709;49.006;12.100;2024-02-26T00:03:39;49051.66;;;-146.00;98.45
21102;BME280;10709;49.006;12.100;2024-02-26T00:06:08;49063.41;;;-146.00;98.92
21102;BME280;10709;49.006;12.100;2024-02-26T00:08:35;49047.72;;;-146.00;99.28
21102;BME280;10709;49.006;12.100;2024-02-26T00:11:02;49094.75;;;-146.00;99.31
21102;BME280;10709;49.006;12.100;2024-02-26T00:13:29;49067.31;;;-146.00;99.90
21102;BME280;10709;49.006;12.100;2024-02-26T00:15:55;49067.31;;;-146.00;99.60
21102;BME280;10709;49.006;12.100;2024-02-26T00:18:22;49075.16;;;-146.00;99.81
21102;BME280;10709;49.006;12.100;2024-02-26T00:20:51;49051.66;;;-146.00;99.42
21102;BME280;10709;49.006;12.100;2024-02-26T00:23:18;49043.81;;;-146.00;99.55
21102;BME280;10709;49.006;12.100;2024-02-26T00:25:46;49067.31;;;-146.00;99.40
21102;BME280;10709;49.006;12.100;2024-02-26T00:28:13;49041.84;;;-146.00;99.11
21102;BME280;10709;49.006;12.100;2024-02-26T00:30:39;49037.94;;;-146.00;99.60
21102;BME280;10709;49.006;12.100;2024-02-26T00:33:06;49081.03;;;-146.00;99.72
21102;BME280;10709;49.006;12.100;2024-02-26T00:35:33;49081.03;;;-146.00;99.41
21102;BME280;10709;49.006;12.100;2024-02-26T00:38:02;49071.25;;;-146.00;99.56
21102;BME280;10709;49.006;12.100;2024-02-26T00:40:29;49039.88;;;-146.00;99.45
21102;BME280;10709;49.006;12.100;2024-02-26T00:42:56;49055.56;;;-146.00;99.56
21102;BME280;10709;49.006;12.100;2024-02-26T00:45:25;49053.59;;;-146.00;98.82
21102;BME280;10709;49.006;12.100;2024-02-26T00:47:51;49061.44;;;-146.00;99.16
21102;BME280;10709;49.006;12.100;2024-02-26T00:50:18;49086.91;;;-146.00;98.59
21102;BME280;10709;49.006;12.100;2024-02-26T00:52:44;49075.16;;;-146.00;98.87
21102;BME280;10709;49.006;12.100;2024-02-26T00:55:11;49102.59;;;-146.00;98.71
21102;BME280;10709;49.006;12.100;2024-02-26T00:57:38;49096.72;;;-146.00;98.41
21102;BME280;10709;49.006;12.100;2024-02-26T01:00:05;49086.91;;;-146.00;98.78
21102;BME280;10709;49.006;12.100;2024-02-26T01:02:31;49055.56;;;-146.00;98.83
21102;BME280;10709;49.006;12.100;2024-02-26T01:04:58;49094.75;;;-146.00;99.09
21102;BME280;10709;49.006;12.100;2024-02-26T01:07:24;49063.41;;;-146.00;98.78
21102;BME280;10709;49.006;12.100;2024-02-26T01:09:54;49075.16;;;-146.00;99.11
21102;BME280;10709;49.006;12.100;2024-02-26T01:12:20;49051.66;;;-146.00;98.56
21102;BME280;10709;49.006;12.100;2024-02-26T01:14:49;49047.72;;;-146.00;98.87
21102;BME280;10709;49.006;12.100;2024-02-26T01:17:15;49059.47;;;-146.00;98.89
21102;BME280;10709;49.006;12.100;2024-02-26T01:19:42;49055.56;;;-146.00;98.87
21102;BME280;10709;49.006;12.100;2024-02-26T01:22:09;49041.84;;;-146.00;99.28
21102;BME280;10709;49.006;12.100;2024-02-26T01:24:35;49067.31;;;-146.00;98.84
21102;BME280;10709;49.006;12.100;2024-02-26T01:27:02;49077.13;;;-146.00;99.08
21102;BME280;10709;49.006;12.100;2024-02-26T01:29:29;49063.41;;;-146.00;98.69
21102;BME280;10709;49.006;12.100;2024-02-26T01:31:56;49071.25;;;-146.00;98.56
21102;BME280;10709;49.006;12.100;2024-02-26T01:34:22;49067.31;;;-146.00;98.55
21102;BME280;10709;49.006;12.100;2024-02-26T01:36:49;49063.41;;;-146.00;98.34
21102;BME280;10709;49.006;12.100;2024-02-26T01:39:16;49081.03;;;-146.00;97.85
21102;BME280;10709;49.006;12.100;2024-02-26T01:41:42;49059.47;;;-146.00;97.04
21102;BME280;10709;49.006;12.100;2024-02-26T01:44:12;49043.81;;;-146.00;97.12
21102;BME280;10709;49.006;12.100;2024-02-26T01:46:39;49039.88;;;-146.00;97.24
21102;BME280;10709;49.006;12.100;2024-02-26T01:49:07;49075.16;;;-146.00;96.95
21102;BME280;10709;49.006;12.100;2024-02-26T01:51:35;49083.00;;;-146.00;96.50
21102;BME280;10709;49.006;12.100;2024-02-26T01:54:03;49071.25;;;-146.00;96.28
21102;BME280;10709;49.006;12.100;2024-02-26T01:56:31;49071.25;;;-146.00;96.17
21102;BME280;10709;49.006;12.100;2024-02-26T02:03:14;49053.59;;;-146.00;95.27
21102;BME280;10709;49.006;12.100;2024-02-26T02:14:39;49026.19;;;-146.00;94.92
21102;BME280;10709;49.006;12.100;2024-02-26T02:33:54;49045.78;;;-146.00;95.98
21102;BME280;10709;49.006;12.100;2024-02-26T02:41:59;49010.50;;;-146.00;95.23
21102;BME280;10709;49.006;12.100;2024-02-26T02:46:03;49051.66;;;-146.00;97.18
21102;BME280;10709;49.006;12.100;2024-02-26T03:10:10;48996.78;;;-146.00;92.97
21102;BME280;10709;49.006;12.100;2024-02-26T03:13:23;48996.78;;;-146.00;93.91
21102;BME280;10709;49.006;12.100;2024-02-26T03:17:25;49008.53;;;-146.00;92.53
21102;BME280;10709;49.006;12.100;2024-02-26T03:29:05;48945.84;;;-146.00;90.73
21102;BME280;10709;49.006;12.100;2024-02-26T03:44:47;48981.13;;;-146.00;92.91
21102;BME280;10709;49.006;12.100;2024-02-26T03:52:10;48939.97;;;-146.00;91.59
21102;BME280;10709;49.006;12.100;2024-02-26T03:55:42;49008.53;;;-146.00;92.53
21102;BME280;10709;49.006;12.100;2024-02-26T04:07:34;48906.69;;;-146.00;90.89
21102;BME280;10709;49.006;12.100;2024-02-26T04:11:24;48953.69;;;-146.00;91.66
21102;BME280;10709;49.006;12.100;2024-02-26T04:15:29;48953.69;;;-146.00;91.13
21102;BME280;10709;49.006;12.100;2024-02-26T04:19:25;48934.09;;;-146.00;92.45
21102;BME280;10709;49.006;12.100;2024-02-26T04:31:00;49032.06;;;-146.00;96.35
21102;BME280;10709;49.006;12.100;2024-02-26T04:35:06;49043.81;;;-146.00;95.40
21102;BME280;10709;49.006;12.100;2024-02-26T04:38:37;48971.31;;;-146.00;93.35
21102;BME280;10709;49.006;12.100;2024-02-26T04:42:27;48961.53;;;-146.00;92.08
21102;BME280;10709;49.006;12.100;2024-02-26T04:46:14;48953.69;;;-146.00;92.14
21102;BME280;10709;49.006;12.100;2024-02-26T04:58:07;48953.69;;;-146.00;92.96
21102;BME280;10709;49.006;12.100;2024-02-26T05:06:07;48941.94;;;-146.00;93.15
21102;BME280;10709;49.006;12.100;2024-02-26T05:09:52;49004.63;;;-146.00;93.54
21102;BME280;10709;49.006;12.100;2024-02-26T05:13:44;48983.06;;;-146.00;93.67
21102;BME280;10709;49.006;12.100;2024-02-26T05:30:54;48977.19;;;-146.00;92.88
21102;BME280;10709;49.006;12.100;2024-02-26T05:33:22;48957.59;;;-146.00;92.95
21102;BME280;10709;49.006;12.100;2024-02-26T05:35:50;48957.59;;;-146.00;92.94
21102;BME280;10709;49.006;12.100;2024-02-26T05:38:17;48977.19;;;-146.00;92.80
21102;BME280;10709;49.006;12.100;2024-02-26T05:40:44;48985.03;;;-146.00;93.13
21102;BME280;10709;49.006;12.100;2024-02-26T05:43:12;48988.94;;;-146.00;92.91
21102;BME280;10709;49.006;12.100;2024-02-26T05:45:42;49000.72;;;-146.00;92.89
21102;BME280;10709;49.006;12.100;2024-02-26T05:48:08;48938.03;;;-146.00;92.07
21102;BME280;10709;49.006;12.100;2024-02-26T05:50:35;49012.47;;;-146.00;93.25
21102;BME280;10709;49.006;12.100;2024-02-26T05:53:02;48977.19;;;-146.00;94.09
21102;BME280;10709;49.006;12.100;2024-02-26T05:55:30;48969.38;;;-146.00;92.98
21102;BME280;10709;49.006;12.100;2024-02-26T05:57:57;48973.28;;;-146.00;93.68
21102;BME280;10709;49.006;12.100;2024-02-26T06:00:23;48969.38;;;-146.00;94.20
21102;BME280;10709;49.006;12.100;2024-02-26T06:02:50;48965.44;;;-146.00;94.09
21102;BME280;10709;49.006;12.100;2024-02-26T06:05:17;48981.13;;;-146.00;93.50
21102;BME280;10709;49.006;12.100;2024-02-26T06:07:44;48961.53;;;-146.00;93.36
21102;BME280;10709;49.006;12.100;2024-02-26T06:10:14;48957.59;;;-146.00;92.77
21102;BME280;10709;49.006;12.100;2024-02-26T06:12:41;48965.44;;;-146.00;93.32
21102;BME280;10709;49.006;12.100;2024-02-26T06:15:08;48973.28;;;-146.00;93.82
21102;BME280;10709;49.006;12.100;2024-02-26T06:17:35;48965.44;;;-146.00;93.38
21102;BME280;10709;49.006;12.100;2024-02-26T06:20:02;49000.72;;;-146.00;94.70
21102;BME280;10709;49.006;12.100;2024-02-26T06:22:30;48973.28;;;-146.00;95.85
21102;BME280;10709;49.006;12.100;2024-02-26T06:24:59;48985.03;;;-146.00;96.52
21102;BME280;10709;49.006;12.100;2024-02-26T06:27:28;48987.00;;;-146.00;97.44
21102;BME280;10709;49.006;12.100;2024-02-26T06:29:54;48965.44;;;-146.00;97.16
21102;BME280;10709;49.006;12.100;2024-02-26T06:32:23;48996.78;;;-146.00;95.61
21102;BME280;10709;49.006;12.100;2024-02-26T06:34:49;48983.06;;;-146.00;96.20
21102;BME280;10709;49.006;12.100;2024-02-26T06:37:17;49032.06;;;-146.00;98.00
21102;BME280;10709;49.006;12.100;2024-02-26T06:39:44;48979.16;;;-146.00;99.21
21102;BME280;10709;49.006;12.100;2024-02-26T06:42:11;49030.09;;;-146.00;98.98
21102;BME280;10709;49.006;12.100;2024-02-26T06:44:38;49028.13;;;-146.00;100.00
21102;BME280;10709;49.006;12.100;2024-02-26T06:47:05;49035.97;;;-146.00;100.00
21102;BME280;10709;49.006;12.100;2024-02-26T06:49:32;49016.38;;;-146.00;100.00
21102;BME280;10709;49.006;12.100;2024-02-26T06:51:59;49039.88;;;-146.00;100.00
21102;BME280;10709;49.006;12.100;2024-02-26T06:54:28;49028.13;;;-146.00;99.31
21102;BME280;10709;49.006;12.100;2024-02-26T06:56:54;49037.94;;;-146.00;98.23
21102;BME280;10709;49.006;12.100;2024-02-26T06:59:21;48996.78;;;-146.00;97.73
21102;BME280;10709;49.006;12.100;2024-02-26T07:01:50;49016.38;;;-146.00;97.40
21102;BME280;10709;49.006;12.100;2024-02-26T07:04:17;49047.72;;;-146.00;96.53
21102;BME280;10709;49.006;12.100;2024-02-26T07:06:44;49030.09;;;-146.00;96.82
21102;BME280;10709;49.006;12.100;2024-02-26T07:09:13;48973.28;;;-146.00;96.44
21102;BME280;10709;49.006;12.100;2024-02-26T07:11:40;49012.47;;;-146.00;96.63
21102;BME280;10709;49.006;12.100;2024-02-26T07:14:09;49000.72;;;-146.00;96.03
21102;BME280;10709;49.006;12.100;2024-02-26T07:16:37;49022.25;;;-146.00;96.42
21102;BME280;10709;49.006;12.100;2024-02-26T07:19:04;49022.25;;;-146.00;96.69
21102;BME280;10709;49.006;12.100;2024-02-26T07:21:31;49020.31;;;-146.00;97.20
21102;BME280;10709;49.006;12.100;2024-02-26T07:23:58;48988.94;;;-146.00;97.45
21102;BME280;10709;49.006;12.100;2024-02-26T07:26:25;49012.47;;;-146.00;98.06
21102;BME280;10709;49.006;12.100;2024-02-26T07:28:52;49065.34;;;-146.00;97.91
21102;BME280;10709;49.006;12.100;2024-02-26T07:31:19;49004.63;;;-146.00;97.46
21102;BME280;10709;49.006;12.100;2024-02-26T07:33:46;49035.97;;;-146.00;97.58
21102;BME280;10709;49.006;12.100;2024-02-26T07:36:13;49026.19;;;-146.00;97.64
21102;BME280;10709;49.006;12.100;2024-02-26T07:38:40;49032.06;;;-146.00;98.03
21102;BME280;10709;49.006;12.100;2024-02-26T07:41:09;49043.81;;;-146.00;97.67
21102;BME280;10709;49.006;12.100;2024-02-26T07:43:36;49026.19;;;-146.00;95.94
21102;BME280;10709;49.006;12.100;2024-02-26T07:46:03;49004.63;;;-146.00;96.09
21102;BME280;10709;49.006;12.100;2024-02-26T07:48:33;49002.66;;;-146.00;95.62
21102;BME280;10709;49.006;12.100;2024-02-26T07:51:01;49010.50;;;-146.00;94.78
21102;BME280;10709;49.006;12.100;2024-02-26T07:58:51;49032.06;;;-146.00;96.27
21102;BME280;10709;49.006;12.100;2024-02-26T08:01:18;49028.13;;;-146.00;96.13
21102;BME280;10709;49.006;12.100;2024-02-26T08:03:45;49018.34;;;-146.00;95.02
21102;BME280;10709;49.006;12.100;2024-02-26T08:06:13;49004.63;;;-146.00;93.33
21102;BME280;10709;49.006;12.100;2024-02-26T08:08:40;48992.88;;;-146.00;93.89
21102;BME280;10709;49.006;12.100;2024-02-26T08:11:06;49043.81;;;-146.00;94.48
21102;BME280;10709;49.006;12.100;2024-02-26T08:13:34;48996.78;;;-146.00;93.70
21102;BME280;10709;49.006;12.100;2024-02-26T08:16:02;48977.19;;;-146.00;92.39
21102;BME280;10709;49.006;12.100;2024-02-26T08:18:29;48947.81;;;-146.00;91.66
21102;BME280;10709;49.006;12.100;2024-02-26T08:20:55;48959.56;;;-146.00;90.46
21102;BME280;10709;49.006;12.100;2024-02-26T08:23:22;48965.44;;;-146.00;90.53
21102;BME280;10709;49.006;12.100;2024-02-26T08:25:49;48939.97;;;-146.00;89.29
21102;BME280;10709;49.006;12.100;2024-02-26T08:28:15;48932.13;;;-146.00;89.42
21102;BME280;10709;49.006;12.100;2024-02-26T08:30:44;48947.81;;;-146.00;88.95
21102;BME280;10709;49.006;12.100;2024-02-26T08:33:11;48930.19;;;-146.00;88.21
21102;BME280;10709;49.006;12.100;2024-02-26T08:35:40;48910.59;;;-146.00;87.82
21102;BME280;10709;49.006;12.100;2024-02-26T08:38:07;48938.03;;;-146.00;88.27
21102;BME280;10709;49.006;12.100;2024-02-26T08:40:33;48898.84;;;-146.00;86.93
21102;BME280;10709;49.006;12.100;2024-02-26T08:43:01;48930.19;;;-146.00;87.68
21102;BME280;10709;49.006;12.100;2024-02-26T08:45:28;48910.59;;;-146.00;87.76
21102;BME280;10709;49.006;12.100;2024-02-26T08:47:56;48894.91;;;-146.00;86.93
21102;BME280;10709;49.006;12.100;2024-02-26T08:50:22;48910.59;;;-146.00;87.09
21102;BME280;10709;49.006;12.100;2024-02-26T08:52:49;48918.44;;;-146.00;86.73
21102;BME280;10709;49.006;12.100;2024-02-26T08:55:18;48908.63;;;-146.00;86.33
21102;BME280;10709;49.006;12.100;2024-02-26T08:57:47;48924.31;;;-146.00;86.69
21102;BME280;10709;49.006;12.100;2024-02-26T09:00:14;48945.84;;;-146.00;87.42
21102;BME280;10709;49.006;12.100;2024-02-26T09:02:42;48906.69;;;-146.00;86.23
21102;BME280;10709;49.006;12.100;2024-02-26T09:05:10;48922.34;;;-146.00;86.55
21102;BME280;10709;49.006;12.100;2024-02-26T09:07:38;48902.75;;;-146.00;84.70
21102;BME280;10709;49.006;12.100;2024-02-26T09:10:06;48898.84;;;-146.00;85.47
21102;BME280;10709;49.006;12.100;2024-02-26T09:12:35;48906.69;;;-146.00;84.47
21102;BME280;10709;49.006;12.100;2024-02-26T09:15:03;48914.50;;;-146.00;85.30
21102;BME280;10709;49.006;12.100;2024-02-26T09:17:30;48894.91;;;-146.00;84.46
21102;BME280;10709;49.006;12.100;2024-02-26T09:19:56;48859.66;;;-146.00;81.75
21102;BME280;10709;49.006;12.100;2024-02-26T09:22:23;48851.81;;;-146.00;80.48
21102;BME280;10709;49.006;12.100;2024-02-26T09:24:50;48867.50;;;-146.00;79.70
21102;BME280;10709;49.006;12.100;2024-02-26T09:27:22;48844.00;;;-146.00;78.86
21102;BME280;10709;49.006;12.100;2024-02-26T09:29:50;48816.56;;;-146.00;78.13
21102;BME280;10709;49.006;12.100;2024-02-26T09:32:18;48824.41;;;-146.00;78.41
21102;BME280;10709;49.006;12.100;2024-02-26T09:34:45;48842.03;;;-146.00;80.50
21102;BME280;10709;49.006;12.100;2024-02-26T09:37:12;48836.16;;;-146.00;78.75
21102;BME280;10709;49.006;12.100;2024-02-26T09:39:52;48844.00;;;-146.00;79.51
21102;BME280;10709;49.006;12.100;2024-02-26T09:42:21;48847.91;;;-146.00;78.58
21102;BME280;10709;49.006;12.100;2024-02-26T09:44:54;48820.47;;;-146.00;78.86
21102;BME280;10709;49.006;12.100;2024-02-26T09:47:24;48851.81;;;-146.00;78.38
21102;BME280;10709;49.006;12.100;2024-02-26T09:49:56;48832.22;;;-146.00;76.81
21102;BME280;10709;49.006;12.100;2024-02-26T09:52:23;48800.88;;;-146.00;78.97
21102;BME280;10709;49.006;12.100;2024-02-26T09:54:50;48830.28;;;-146.00;78.68
21102;BME280;10709;49.006;12.100;2024-02-26T09:57:17;48832.22;;;-146.00;76.46
21102;BME280;10709;49.006;12.100;2024-02-26T09:59:47;48834.19;;;-146.00;75.63
21102;BME280;10709;49.006;12.100;2024-02-26T10:02:17;48830.28;;;-146.00;75.43
21102;BME280;10709;49.006;12.100;2024-02-26T10:04:46;48820.47;;;-146.00;75.49
21102;BME280;10709;49.006;12.100;2024-02-26T10:07:17;48824.41;;;-146.00;77.38
21102;BME280;10709;49.006;12.100;2024-02-26T10:09:47;48812.63;;;-146.00;77.59
21102;BME280;10709;49.006;12.100;2024-02-26T10:12:15;48824.41;;;-146.00;75.50
21102;BME280;10709;49.006;12.100;2024-02-26T10:14:43;48812.63;;;-146.00;74.65
21102;BME280;10709;49.006;12.100;2024-02-26T10:17:12;48806.75;;;-146.00;75.45
21102;BME280;10709;49.006;12.100;2024-02-26T10:19:41;48808.72;;;-146.00;75.09
21102;BME280;10709;49.006;12.100;2024-02-26T10:22:08;48808.72;;;-146.00;74.80
21102;BME280;10709;49.006;12.100;2024-02-26T10:24:36;48808.72;;;-146.00;73.85
21102;BME280;10709;49.006;12.100;2024-02-26T10:27:03;48824.41;;;-146.00;74.10
21102;BME280;10709;49.006;12.100;2024-02-26T10:29:31;48789.13;;;-146.00;73.55
21102;BME280;10709;49.006;12.100;2024-02-26T10:31:58;48808.72;;;-146.00;74.35
21102;BME280;10709;49.006;12.100;2024-02-26T10:34:24;48804.81;;;-146.00;74.16
21102;BME280;10709;49.006;12.100;2024-02-26T10:36:53;48828.31;;;-146.00;72.74
21102;BME280;10709;49.006;12.100;2024-02-26T10:39:20;48796.97;;;-146.00;71.86
21102;BME280;10709;49.006;12.100;2024-02-26T10:41:49;48812.63;;;-146.00;71.88
21102;BME280;10709;49.006;12.100;2024-02-26T10:44:16;48791.09;;;-146.00;71.05
21102;BME280;10709;49.006;12.100;2024-02-26T10:46:47;48769.53;;;-146.00;71.38
21102;BME280;10709;49.006;12.100;2024-02-26T10:49:16;48781.31;;;-146.00;71.31
21102;BME280;10709;49.006;12.100;2024-02-26T10:51:52;48789.13;;;-146.00;70.92
21102;BME280;10709;49.006;12.100;2024-02-26T10:54:26;48800.88;;;-146.00;71.14
21102;BME280;10709;49.006;12.100;2024-02-26T10:56:56;48789.13;;;-146.00;69.31
21102;BME280;10709;49.006;12.100;2024-02-26T10:59:28;48785.22;;;-146.00;69.51
21102;BME280;10709;49.006;12.100;2024-02-26T11:01:56;48777.38;;;-146.00;69.80
21102;BME280;10709;49.006;12.100;2024-02-26T11:04:25;48781.31;;;-146.00;70.57
21102;BME280;10709;49.006;12.100;2024-02-26T11:06:54;48785.22;;;-146.00;69.78
21102;BME280;10709;49.006;12.100;2024-02-26T11:09:24;48796.97;;;-146.00;68.19
21102;BME280;10709;49.006;12.100;2024-02-26T11:11:52;48789.13;;;-146.00;68.79
21102;BME280;10709;49.006;12.100;2024-02-26T11:14:21;48775.41;;;-146.00;68.98
21102;BME280;10709;49.006;12.100;2024-02-26T11:16:49;48789.13;;;-146.00;68.48
21102;BME280;10709;49.006;12.100;2024-02-26T11:19:19;48753.88;;;-146.00;68.62
21102;BME280;10709;49.006;12.100;2024-02-26T11:21:46;48798.94;;;-146.00;68.85
21102;BME280;10709;49.006;12.100;2024-02-26T11:24:15;48800.88;;;-146.00;68.32
21102;BME280;10709;49.006;12.100;2024-02-26T11:26:48;48808.72;;;-146.00;68.25
21102;BME280;10709;49.006;12.100;2024-02-26T11:29:19;48757.78;;;-146.00;68.18
21102;BME280;10709;49.006;12.100;2024-02-26T11:31:47;48746.03;;;-146.00;67.58
21102;BME280;10709;49.006;12.100;2024-02-26T11:34:14;48765.63;;;-146.00;67.22
21102;BME280;10709;49.006;12.100;2024-02-26T11:36:41;48796.97;;;-146.00;66.53
21102;BME280;10709;49.006;12.100;2024-02-26T11:39:11;48785.22;;;-146.00;66.54
21102;BME280;10709;49.006;12.100;2024-02-26T11:41:38;48791.09;;;-146.00;66.43
21102;BME280;10709;49.006;12.100;2024-02-26T11:44:07;48775.41;;;-146.00;65.14
21102;BME280;10709;49.006;12.100;2024-02-26T11:46:46;48755.84;;;-146.00;64.15
21102;BME280;10709;49.006;12.100;2024-02-26T11:51:52;48785.22;;;-146.00;66.42
21102;BME280;10709;49.006;12.100;2024-02-26T11:57:43;48761.72;;;-146.00;66.54
21102;BME280;10709;49.006;12.100;2024-02-26T12:00:12;48773.47;;;-146.00;65.93
21102;BME280;10709;49.006;12.100;2024-02-26T12:02:52;48775.41;;;-146.00;64.60
21102;BME280;10709;49.006;12.100;2024-02-26T12:05:32;48765.63;;;-146.00;65.32
21102;BME280;10709;49.006;12.100;2024-02-26T12:08:03;48757.78;;;-146.00;64.50
21102;BME280;10709;49.006;12.100;2024-02-26T12:10:38;48775.41;;;-146.00;65.11
21102;BME280;10709;49.006;12.100;2024-02-26T12:13:10;48759.75;;;-146.00;65.39
21102;BME280;10709;49.006;12.100;2024-02-26T12:37:48;48789.13;;;-146.00;63.79
21102;BME280;10709;49.006;12.100;2024-02-26T12:40:18;48777.38;;;-146.00;63.93
21102;BME280;10709;49.006;12.100;2024-02-26T12:42:46;48777.38;;;-146.00;63.49
21102;BME280;10709;49.006;12.100;2024-02-26T12:45:13;48781.31;;;-146.00;63.56
21102;BME280;10709;49.006;12.100;2024-02-26T12:47:43;48759.75;;;-146.00;63.65
21102;BME280;10709;49.006;12.100;2024-02-26T12:50:10;48781.31;;;-146.00;64.75
21102;BME280;10709;49.006;12.100;2024-02-26T12:52:46;48773.47;;;-146.00;63.65
21102;BME280;10709;49.006;12.100;2024-02-26T12:55:15;48777.38;;;-146.00;63.96
21102;BME280;10709;49.006;12.100;2024-02-26T12:57:43;48761.72;;;-146.00;64.09
21102;BME280;10709;49.006;12.100;2024-02-26T13:00:12;48796.97;;;-146.00;62.36
21102;BME280;10709;49.006;12.100;2024-02-26T13:02:42;48796.97;;;-146.00;62.28
21102;BME280;10709;49.006;12.100;2024-02-26T13:05:13;48757.78;;;-146.00;61.92
21102;BME280;10709;49.006;12.100;2024-02-26T13:07:42;48783.25;;;-146.00;62.44
21102;BME280;10709;49.006;12.100;2024-02-26T13:10:10;48769.53;;;-146.00;62.57
21102;BME280;10709;49.006;12.100;2024-02-26T13:12:48;48775.41;;;-146.00;59.29
21102;BME280;10709;49.006;12.100;2024-02-26T13:15:18;48804.81;;;-146.00;59.21
21102;BME280;10709;49.006;12.100;2024-02-26T13:17:45;48765.63;;;-146.00;58.88
21102;BME280;10709;49.006;12.100;2024-02-26T13:20:13;48759.75;;;-146.00;59.63
21102;BME280;10709;49.006;12.100;2024-02-26T13:43:08;48769.53;;;-146.00;51.92
21102;BME280;10709;49.006;12.100;2024-02-26T13:45:39;48785.22;;;-146.00;52.08
21102;BME280;10709;49.006;12.100;2024-02-26T13:48:08;48757.78;;;-146.00;52.92
21102;BME280;10709;49.006;12.100;2024-02-26T13:50:39;48761.72;;;-146.00;50.32
21102;BME280;10709;49.006;12.100;2024-02-26T14:01:18;48761.72;;;-146.00;47.85
21102;BME280;10709;49.006;12.100;2024-02-26T14:03:45;48746.03;;;-146.00;49.64
21102;BME280;10709;49.006;12.100;2024-02-26T14:06:12;48767.59;;;-146.00;49.08
21102;BME280;10709;49.006;12.100;2024-02-26T14:08:40;48773.47;;;-146.00;48.78
21102;BME280;10709;49.006;12.100;2024-02-26T14:11:07;48777.38;;;-146.00;47.91
21102;BME280;10709;49.006;12.100;2024-02-26T14:13:33;48771.50;;;-146.00;47.49
21102;BME280;10709;49.006;12.100;2024-02-26T14:16:04;48793.06;;;-146.00;47.51
21102;BME280;10709;49.006;12.100;2024-02-26T14:18:31;48787.19;;;-146.00;47.93
21102;BME280;10709;49.006;12.100;2024-02-26T14:20:57;48771.50;;;-146.00;48.39
21102;BME280;10709;49.006;12.100;2024-02-26T14:23:24;48777.38;;;-146.00;49.59
21102;BME280;10709;49.006;12.100;2024-02-26T14:25:50;48773.47;;;-146.00;53.01
21102;BME280;10709;49.006;12.100;2024-02-26T14:28:17;48773.47;;;-146.00;53.91
21102;BME280;10709;49.006;12.100;2024-02-26T14:30:50;48800.88;;;-146.00;56.95
21102;BME280;10709;49.006;12.100;2024-02-26T14:33:17;48751.91;;;-146.00;57.93
21102;BME280;10709;49.006;12.100;2024-02-26T14:35:44;48785.22;;;-146.00;57.92
21102;BME280;10709;49.006;12.100;2024-02-26T14:38:10;48781.31;;;-146.00;57.92
21102;BME280;10709;49.006;12.100;2024-02-26T14:40:38;48785.22;;;-146.00;58.59
21102;BME280;10709;49.006;12.100;2024-02-26T14:43:04;48781.31;;;-146.00;57.94
21102;BME280;10709;49.006;12.100;2024-02-26T14:45:31;48789.13;;;-146.00;57.89
21102;BME280;10709;49.006;12.100;2024-02-26T14:47:58;48796.97;;;-146.00;58.29
21102;BME280;10709;49.006;12.100;2024-02-26T14:50:25;48781.31;;;-146.00;58.25
21102;BME280;10709;49.006;12.100;2024-02-26T14:52:51;48800.88;;;-146.00;57.75
21102;BME280;10709;49.006;12.100;2024-02-26T14:55:18;48793.06;;;-146.00;59.20
21102;BME280;10709;49.006;12.100;2024-02-26T14:57:44;48773.47;;;-146.00;58.48
21102;BME280;10709;49.006;12.100;2024-02-26T15:00:11;48796.97;;;-146.00;58.89
21102;BME280;10709;49.006;12.100;2024-02-26T15:02:38;48800.88;;;-146.00;59.43
21102;BME280;10709;49.006;12.100;2024-02-26T15:05:05;48777.38;;;-146.00;60.25
21102;BME280;10709;49.006;12.100;2024-02-26T15:07:33;48773.47;;;-146.00;60.33
21102;BME280;10709;49.006;12.100;2024-02-26T15:10:00;48789.13;;;-146.00;61.04
21102;BME280;10709;49.006;12.100;2024-02-26T15:12:27;48796.97;;;-146.00;61.08
21102;BME280;10709;49.006;12.100;2024-02-26T15:14:54;48775.41;;;-146.00;61.48
21102;BME280;10709;49.006;12.100;2024-02-26T15:17:20;48777.38;;;-146.00;61.39
21102;BME280;10709;49.006;12.100;2024-02-26T15:19:47;48783.25;;;-146.00;61.85
21102;BME280;10709;49.006;12.100;2024-02-26T15:22:13;48765.63;;;-146.00;62.03
21102;BME280;10709;49.006;12.100;2024-02-26T15:24:40;48757.78;;;-146.00;62.72
21102;BME280;10709;49.006;12.100;2024-02-26T15:27:06;48761.72;;;-146.00;62.48
21102;BME280;10709;49.006;12.100;2024-02-26T15:29:33;48777.38;;;-146.00;62.55
21102;BME280;10709;49.006;12.100;2024-02-26T15:31:59;48793.06;;;-146.00;63.11
21102;BME280;10709;49.006;12.100;2024-02-26T15:34:25;48787.19;;;-146.00;62.90
21102;BME280;10709;49.006;12.100;2024-02-26T15:36:52;48779.34;;;-146.00;63.36
21102;BME280;10709;49.006;12.100;2024-02-26T15:39:19;48765.63;;;-146.00;64.01
21102;BME280;10709;49.006;12.100;2024-02-26T15:41:47;48765.63;;;-146.00;64.18
21102;BME280;10709;49.006;12.100;2024-02-26T15:44:14;48757.78;;;-146.00;64.25
21102;BME280;10709;49.006;12.100;2024-02-26T15:46:41;48781.31;;;-146.00;64.62
21102;BME280;10709;49.006;12.100;2024-02-26T15:49:08;48746.03;;;-146.00;64.71
21102;BME280;10709;49.006;12.100;2024-02-26T15:51:39;48759.75;;;-146.00;64.64
21102;BME280;10709;49.006;12.100;2024-02-26T15:54:05;48753.88;;;-146.00;64.82
21102;BME280;10709;49.006;12.100;2024-02-26T15:56:32;48773.47;;;-146.00;64.93
21102;BME280;10709;49.006;12.100;2024-02-26T15:58:59;48785.22;;;-146.00;65.56
21102;BME280;10709;49.006;12.100;2024-02-26T16:01:25;48769.53;;;-146.00;65.79
21102;BME280;10709;49.006;12.100;2024-02-26T16:03:55;48765.63;;;-146.00;65.82
21102;BME280;10709;49.006;12.100;2024-02-26T16:06:48;48767.59;;;-146.00;65.67